sensor_id;sensor_type;location;lat;lon;timestamp;P1;durP1;ratioP1;P2;durP2;ratioP2
18793;SDS011;29610;49.022;12.114;2023-06-19T00:00:41;23.63;;;9.70;;
18793;SDS011;29610;49.022;12.114;2023-06-19T00:03:10;14.60;;;9.50;;
18793;SDS011;29610;49.022;12.114;2023-06-19T00:05:39;14.93;;;9.23;;
18793;SDS011;29610;49.022;12.114;2023-06-19T00:08:09;16.53;;;9.47;;
18793;SDS011;29610;49.022;12.114;2023-06-19T00:10:38;14.47;;;9.37;;
18793;SDS011;29610;49.022;12.114;2023-06-19T00:13:06;16.33;;;9.33;;
18793;SDS011;29610;49.022;12.114;2023-06-19T00:15:35;15.57;;;9.53;;
18793;SDS011;29610;49.022;12.114;2023-06-19T00:18:03;16.20;;;10.40;;
18793;SDS011;29610;49.022;12.114;2023-06-19T00:20:33;18.90;;;9.83;;
18793;SDS011;29610;49.022;12.114;2023-06-19T00:23:02;16.73;;;9.53;;
18793;SDS011;29610;49.022;12.114;2023-06-19T00:25:32;18.73;;;10.20;;
18793;SDS011;29610;49.022;12.114;2023-06-19T00:28:01;17.93;;;9.97;;
18793;SDS011;29610;49.022;12.114;2023-06-19T00:30:30;18.00;;;9.57;;
18793;SDS011;29610;49.022;12.114;2023-06-19T00:32:59;18.93;;;10.30;;
18793;SDS011;29610;49.022;12.114;2023-06-19T00:35:30;21.30;;;11.70;;
18793;SDS011;29610;49.022;12.114;2023-06-19T00:37:58;19.17;;;9.67;;
18793;SDS011;29610;49.022;12.114;2023-06-19T00:40:28;17.03;;;9.87;;
18793;SDS011;29610;49.022;12.114;2023-06-19T00:43:00;17.80;;;9.50;;
18793;SDS011;29610;49.022;12.114;2023-06-19T00:45:29;19.83;;;10.33;;
18793;SDS011;29610;49.022;12.114;2023-06-19T00:47:58;16.30;;;9.90;;
18793;SDS011;29610;49.022;12.114;2023-06-19T00:50:28;18.47;;;10.87;;
18793;SDS011;29610;49.022;12.114;2023-06-19T00:52:57;18.77;;;10.83;;
18793;SDS011;29610;49.022;12.114;2023-06-19T00:55:29;16.80;;;10.27;;
18793;SDS011;29610;49.022;12.114;2023-06-19T00:58:01;18.33;;;9.50;;
18793;SDS011;29610;49.022;12.114;2023-06-19T01:00:30;18.43;;;10.53;;
18793;SDS011;29610;49.022;12.114;2023-06-19T01:02:59;18.40;;;10.30;;
18793;SDS011;29610;49.022;12.114;2023-06-19T01:05:28;16.03;;;10.30;;
18793;SDS011;29610;49.022;12.114;2023-06-19T01:07:58;16.47;;;10.27;;
18793;SDS011;29610;49.022;12.114;2023-06-19T01:10:34;18.37;;;11.00;;
18793;SDS011;29610;49.022;12.114;2023-06-19T01:13:12;14.20;;;9.47;;
18793;SDS011;29610;49.022;12.114;2023-06-19T01:15:49;17.30;;;10.80;;
18793;SDS011;29610;49.022;12.114;2023-06-19T01:18:19;20.47;;;9.90;;
18793;SDS011;29610;49.022;12.114;2023-06-19T01:20:49;17.30;;;10.20;;
18793;SDS011;29610;49.022;12.114;2023-06-19T01:23:19;16.93;;;10.00;;
18793;SDS011;29610;49.022;12.114;2023-06-19T01:25:47;16.97;;;10.20;;
18793;SDS011;29610;49.022;12.114;2023-06-19T01:28:16;20.00;;;9.43;;
18793;SDS011;29610;49.022;12.114;2023-06-19T01:30:46;18.97;;;12.20;;
18793;SDS011;29610;49.022;12.114;2023-06-19T01:33:17;17.63;;;10.37;;
18793;SDS011;29610;49.022;12.114;2023-06-19T01:35:52;17.00;;;10.47;;
18793;SDS011;29610;49.022;12.114;2023-06-19T01:38:26;18.10;;;11.37;;
18793;SDS011;29610;49.022;12.114;2023-06-19T01:41:01;19.43;;;11.00;;
18793;SDS011;29610;49.022;12.114;2023-06-19T01:43:32;17.97;;;10.33;;
18793;SDS011;29610;49.022;12.114;2023-06-19T01:46:02;16.83;;;10.73;;
18793;SDS011;29610;49.022;12.114;2023-06-19T01:48:34;21.03;;;11.20;;
18793;SDS011;29610;49.022;12.114;2023-06-19T01:51:05;19.27;;;10.70;;
18793;SDS011;29610;49.022;12.114;2023-06-19T01:53:39;17.90;;;11.27;;
18793;SDS011;29610;49.022;12.114;2023-06-19T01:56:09;17.90;;;10.60;;
18793;SDS011;29610;49.022;12.114;2023-06-19T01:58:37;16.80;;;9.70;;
18793;SDS011;29610;49.022;12.114;2023-06-19T02:01:06;20.97;;;10.90;;
18793;SDS011;29610;49.022;12.114;2023-06-19T02:03:35;19.40;;;10.80;;
18793;SDS011;29610;49.022;12.114;2023-06-19T02:06:04;16.30;;;9.87;;
18793;SDS011;29610;49.022;12.114;2023-06-19T02:08:33;18.30;;;10.10;;
18793;SDS011;29610;49.022;12.114;2023-06-19T02:11:03;24.20;;;10.20;;
18793;SDS011;29610;49.022;12.114;2023-06-19T02:13:32;19.70;;;9.83;;
18793;SDS011;29610;49.022;12.114;2023-06-19T02:16:04;17.30;;;10.20;;
18793;SDS011;29610;49.022;12.114;2023-06-19T02:18:32;16.20;;;9.30;;
18793;SDS011;29610;49.022;12.114;2023-06-19T02:21:04;17.77;;;10.37;;
18793;SDS011;29610;49.022;12.114;2023-06-19T02:23:34;23.17;;;11.97;;
18793;SDS011;29610;49.022;12.114;2023-06-19T02:26:04;21.07;;;11.10;;
18793;SDS011;29610;49.022;12.114;2023-06-19T02:28:33;22.00;;;11.70;;
18793;SDS011;29610;49.022;12.114;2023-06-19T02:31:01;19.90;;;11.00;;
18793;SDS011;29610;49.022;12.114;2023-06-19T02:33:30;26.13;;;12.20;;
18793;SDS011;29610;49.022;12.114;2023-06-19T02:36:00;19.13;;;10.80;;
18793;SDS011;29610;49.022;12.114;2023-06-19T02:38:29;17.40;;;10.67;;
18793;SDS011;29610;49.022;12.114;2023-06-19T02:40:58;16.23;;;10.87;;
18793;SDS011;29610;49.022;12.114;2023-06-19T02:43:29;22.03;;;11.00;;
18793;SDS011;29610;49.022;12.114;2023-06-19T02:45:58;17.90;;;10.83;;
18793;SDS011;29610;49.022;12.114;2023-06-19T02:48:27;18.60;;;10.80;;
18793;SDS011;29610;49.022;12.114;2023-06-19T02:50:56;17.00;;;10.53;;
18793;SDS011;29610;49.022;12.114;2023-06-19T02:53:25;16.90;;;10.53;;
18793;SDS011;29610;49.022;12.114;2023-06-19T02:55:54;20.60;;;11.33;;
18793;SDS011;29610;49.022;12.114;2023-06-19T02:58:22;18.80;;;11.07;;
18793;SDS011;29610;49.022;12.114;2023-06-19T03:00:53;19.27;;;12.20;;
18793;SDS011;29610;49.022;12.114;2023-06-19T03:03:22;20.40;;;11.40;;
18793;SDS011;29610;49.022;12.114;2023-06-19T03:05:51;21.73;;;13.40;;
18793;SDS011;29610;49.022;12.114;2023-06-19T03:08:20;21.20;;;13.80;;
18793;SDS011;29610;49.022;12.114;2023-06-19T03:10:49;22.23;;;12.47;;
18793;SDS011;29610;49.022;12.114;2023-06-19T03:13:17;19.47;;;12.43;;
18793;SDS011;29610;49.022;12.114;2023-06-19T03:15:46;17.80;;;11.30;;
18793;SDS011;29610;49.022;12.114;2023-06-19T03:18:16;18.47;;;11.93;;
18793;SDS011;29610;49.022;12.114;2023-06-19T03:20:45;21.47;;;11.07;;
18793;SDS011;29610;49.022;12.114;2023-06-19T03:23:14;25.30;;;11.47;;
18793;SDS011;29610;49.022;12.114;2023-06-19T03:25:43;19.97;;;11.43;;
18793;SDS011;29610;49.022;12.114;2023-06-19T03:28:12;17.70;;;10.90;;
18793;SDS011;29610;49.022;12.114;2023-06-19T03:30:41;18.13;;;11.37;;
18793;SDS011;29610;49.022;12.114;2023-06-19T03:33:10;23.40;;;12.73;;
18793;SDS011;29610;49.022;12.114;2023-06-19T03:35:42;17.60;;;11.43;;
18793;SDS011;29610;49.022;12.114;2023-06-19T03:38:25;19.00;;;11.37;;
18793;SDS011;29610;49.022;12.114;2023-06-19T03:40:54;18.20;;;10.53;;
18793;SDS011;29610;49.022;12.114;2023-06-19T03:43:23;26.43;;;12.87;;
18793;SDS011;29610;49.022;12.114;2023-06-19T03:45:52;22.50;;;12.33;;
18793;SDS011;29610;49.022;12.114;2023-06-19T03:48:21;21.70;;;11.30;;
18793;SDS011;29610;49.022;12.114;2023-06-19T03:50:51;18.90;;;11.47;;
18793;SDS011;29610;49.022;12.114;2023-06-19T03:53:20;20.03;;;12.20;;
18793;SDS011;29610;49.022;12.114;2023-06-19T03:55:49;18.23;;;11.87;;
18793;SDS011;29610;49.022;12.114;2023-06-19T03:58:21;19.37;;;11.20;;
18793;SDS011;29610;49.022;12.114;2023-06-19T04:00:51;22.33;;;11.97;;
18793;SDS011;29610;49.022;12.114;2023-06-19T04:03:20;19.47;;;11.70;;
18793;SDS011;29610;49.022;12.114;2023-06-19T04:05:51;17.67;;;11.13;;
18793;SDS011;29610;49.022;12.114;2023-06-19T04:08:20;18.33;;;11.50;;
18793;SDS011;29610;49.022;12.114;2023-06-19T04:10:51;18.47;;;10.67;;
18793;SDS011;29610;49.022;12.114;2023-06-19T04:13:20;19.90;;;10.87;;
18793;SDS011;29610;49.022;12.114;2023-06-19T04:15:50;18.83;;;11.17;;
18793;SDS011;29610;49.022;12.114;2023-06-19T04:18:19;18.47;;;11.60;;
18793;SDS011;29610;49.022;12.114;2023-06-19T04:20:48;18.47;;;10.93;;
18793;SDS011;29610;49.022;12.114;2023-06-19T04:23:18;18.87;;;11.30;;
18793;SDS011;29610;49.022;12.114;2023-06-19T04:25:47;16.33;;;9.80;;
18793;SDS011;29610;49.022;12.114;2023-06-19T04:28:16;16.17;;;10.03;;
18793;SDS011;29610;49.022;12.114;2023-06-19T04:30:45;16.43;;;10.63;;
18793;SDS011;29610;49.022;12.114;2023-06-19T04:33:14;17.07;;;9.67;;
18793;SDS011;29610;49.022;12.114;2023-06-19T04:35:43;22.13;;;10.90;;
18793;SDS011;29610;49.022;12.114;2023-06-19T04:38:12;19.27;;;11.60;;
18793;SDS011;29610;49.022;12.114;2023-06-19T04:40:42;17.63;;;11.33;;
18793;SDS011;29610;49.022;12.114;2023-06-19T04:43:11;19.33;;;11.90;;
18793;SDS011;29610;49.022;12.114;2023-06-19T04:45:40;21.13;;;11.17;;
18793;SDS011;29610;49.022;12.114;2023-06-19T04:48:09;23.07;;;12.40;;
18793;SDS011;29610;49.022;12.114;2023-06-19T04:50:38;19.50;;;10.40;;
18793;SDS011;29610;49.022;12.114;2023-06-19T04:53:06;21.10;;;12.70;;
18793;SDS011;29610;49.022;12.114;2023-06-19T04:55:35;26.70;;;12.33;;
18793;SDS011;29610;49.022;12.114;2023-06-19T04:58:05;18.43;;;11.27;;
18793;SDS011;29610;49.022;12.114;2023-06-19T05:00:34;18.33;;;11.80;;
18793;SDS011;29610;49.022;12.114;2023-06-19T05:03:03;26.50;;;13.53;;
18793;SDS011;29610;49.022;12.114;2023-06-19T05:05:31;21.57;;;12.50;;
18793;SDS011;29610;49.022;12.114;2023-06-19T05:08:01;21.10;;;12.47;;
18793;SDS011;29610;49.022;12.114;2023-06-19T05:10:30;18.43;;;11.30;;
18793;SDS011;29610;49.022;12.114;2023-06-19T05:12:58;29.43;;;11.03;;
18793;SDS011;29610;49.022;12.114;2023-06-19T05:15:29;16.90;;;9.77;;
18793;SDS011;29610;49.022;12.114;2023-06-19T05:17:58;14.33;;;8.47;;
18793;SDS011;29610;49.022;12.114;2023-06-19T05:20:27;13.90;;;7.50;;
18793;SDS011;29610;49.022;12.114;2023-06-19T05:22:55;21.93;;;7.43;;
18793;SDS011;29610;49.022;12.114;2023-06-19T05:25:25;12.10;;;6.60;;
18793;SDS011;29610;49.022;12.114;2023-06-19T05:27:54;12.80;;;6.87;;
18793;SDS011;29610;49.022;12.114;2023-06-19T05:30:23;12.90;;;6.93;;
18793;SDS011;29610;49.022;12.114;2023-06-19T05:32:53;15.13;;;6.40;;
18793;SDS011;29610;49.022;12.114;2023-06-19T05:35:22;14.93;;;7.73;;
18793;SDS011;29610;49.022;12.114;2023-06-19T05:37:52;14.57;;;7.07;;
18793;SDS011;29610;49.022;12.114;2023-06-19T05:40:21;15.17;;;7.20;;
18793;SDS011;29610;49.022;12.114;2023-06-19T05:42:50;14.67;;;6.80;;
18793;SDS011;29610;49.022;12.114;2023-06-19T05:45:18;13.83;;;7.03;;
18793;SDS011;29610;49.022;12.114;2023-06-19T05:47:47;13.37;;;7.03;;
18793;SDS011;29610;49.022;12.114;2023-06-19T05:52:47;14.10;;;7.40;;
18793;SDS011;29610;49.022;12.114;2023-06-19T05:55:16;18.30;;;7.73;;
18793;SDS011;29610;49.022;12.114;2023-06-19T05:57:45;18.43;;;7.33;;
18793;SDS011;29610;49.022;12.114;2023-06-19T06:00:14;13.17;;;6.77;;
18793;SDS011;29610;49.022;12.114;2023-06-19T06:02:44;14.97;;;7.67;;
18793;SDS011;29610;49.022;12.114;2023-06-19T06:05:13;22.90;;;7.40;;
18793;SDS011;29610;49.022;12.114;2023-06-19T06:07:45;13.60;;;6.77;;
18793;SDS011;29610;49.022;12.114;2023-06-19T06:10:14;13.37;;;7.00;;
18793;SDS011;29610;49.022;12.114;2023-06-19T06:12:43;15.30;;;7.87;;
18793;SDS011;29610;49.022;12.114;2023-06-19T06:15:12;11.80;;;6.33;;
18793;SDS011;29610;49.022;12.114;2023-06-19T06:17:40;13.00;;;6.97;;
18793;SDS011;29610;49.022;12.114;2023-06-19T06:20:09;13.73;;;6.70;;
18793;SDS011;29610;49.022;12.114;2023-06-19T06:22:39;16.20;;;7.03;;
18793;SDS011;29610;49.022;12.114;2023-06-19T06:25:10;14.37;;;7.30;;
18793;SDS011;29610;49.022;12.114;2023-06-19T06:27:41;18.47;;;6.07;;
18793;SDS011;29610;49.022;12.114;2023-06-19T06:30:10;18.80;;;6.93;;
18793;SDS011;29610;49.022;12.114;2023-06-19T06:32:41;32.67;;;8.63;;
18793;SDS011;29610;49.022;12.114;2023-06-19T06:35:10;13.63;;;7.00;;
18793;SDS011;29610;49.022;12.114;2023-06-19T06:37:40;11.97;;;6.30;;
18793;SDS011;29610;49.022;12.114;2023-06-19T06:40:12;14.93;;;7.27;;
18793;SDS011;29610;49.022;12.114;2023-06-19T06:42:41;14.33;;;7.30;;
18793;SDS011;29610;49.022;12.114;2023-06-19T06:45:10;13.53;;;7.00;;
18793;SDS011;29610;49.022;12.114;2023-06-19T06:47:39;15.17;;;7.67;;
18793;SDS011;29610;49.022;12.114;2023-06-19T06:50:11;12.13;;;6.53;;
18793;SDS011;29610;49.022;12.114;2023-06-19T06:52:39;17.23;;;6.90;;
18793;SDS011;29610;49.022;12.114;2023-06-19T06:55:08;15.00;;;7.10;;
18793;SDS011;29610;49.022;12.114;2023-06-19T06:57:38;17.33;;;7.27;;
18793;SDS011;29610;49.022;12.114;2023-06-19T07:00:08;17.10;;;6.60;;
18793;SDS011;29610;49.022;12.114;2023-06-19T07:02:39;14.03;;;7.00;;
18793;SDS011;29610;49.022;12.114;2023-06-19T07:05:08;13.77;;;7.50;;
18793;SDS011;29610;49.022;12.114;2023-06-19T07:07:38;15.67;;;7.80;;
18793;SDS011;29610;49.022;12.114;2023-06-19T07:10:07;16.47;;;7.80;;
18793;SDS011;29610;49.022;12.114;2023-06-19T07:12:45;21.67;;;7.30;;
18793;SDS011;29610;49.022;12.114;2023-06-19T07:15:15;14.87;;;7.43;;
18793;SDS011;29610;49.022;12.114;2023-06-19T07:17:44;14.90;;;8.00;;
18793;SDS011;29610;49.022;12.114;2023-06-19T07:20:13;16.40;;;7.30;;
18793;SDS011;29610;49.022;12.114;2023-06-19T07:22:43;13.10;;;7.20;;
18793;SDS011;29610;49.022;12.114;2023-06-19T07:25:12;14.10;;;6.57;;
18793;SDS011;29610;49.022;12.114;2023-06-19T07:27:41;19.67;;;7.63;;
18793;SDS011;29610;49.022;12.114;2023-06-19T07:30:13;15.80;;;7.57;;
18793;SDS011;29610;49.022;12.114;2023-06-19T07:32:43;15.67;;;8.23;;
18793;SDS011;29610;49.022;12.114;2023-06-19T07:35:12;16.77;;;8.20;;
18793;SDS011;29610;49.022;12.114;2023-06-19T07:37:40;18.93;;;8.77;;
18793;SDS011;29610;49.022;12.114;2023-06-19T07:40:10;15.30;;;7.00;;
18793;SDS011;29610;49.022;12.114;2023-06-19T07:42:39;19.50;;;7.10;;
18793;SDS011;29610;49.022;12.114;2023-06-19T07:45:11;20.50;;;9.70;;
18793;SDS011;29610;49.022;12.114;2023-06-19T07:47:42;21.63;;;7.70;;
18793;SDS011;29610;49.022;12.114;2023-06-19T07:50:10;17.77;;;7.50;;
18793;SDS011;29610;49.022;12.114;2023-06-19T07:52:39;14.57;;;7.13;;
18793;SDS011;29610;49.022;12.114;2023-06-19T07:55:08;18.50;;;7.80;;
18793;SDS011;29610;49.022;12.114;2023-06-19T07:57:37;18.77;;;7.80;;
18793;SDS011;29610;49.022;12.114;2023-06-19T08:00:06;17.57;;;8.00;;
18793;SDS011;29610;49.022;12.114;2023-06-19T08:02:40;14.10;;;6.60;;
18793;SDS011;29610;49.022;12.114;2023-06-19T08:05:10;19.40;;;7.20;;
18793;SDS011;29610;49.022;12.114;2023-06-19T08:07:41;13.10;;;6.90;;
18793;SDS011;29610;49.022;12.114;2023-06-19T08:10:10;16.30;;;7.40;;
18793;SDS011;29610;49.022;12.114;2023-06-19T08:12:41;14.13;;;7.50;;
18793;SDS011;29610;49.022;12.114;2023-06-19T08:15:10;27.23;;;8.23;;
18793;SDS011;29610;49.022;12.114;2023-06-19T08:17:42;12.67;;;6.50;;
18793;SDS011;29610;49.022;12.114;2023-06-19T08:20:11;14.10;;;7.00;;
18793;SDS011;29610;49.022;12.114;2023-06-19T08:22:40;18.00;;;7.10;;
18793;SDS011;29610;49.022;12.114;2023-06-19T08:25:09;24.97;;;7.83;;
18793;SDS011;29610;49.022;12.114;2023-06-19T08:27:38;16.20;;;7.93;;
18793;SDS011;29610;49.022;12.114;2023-06-19T08:30:07;16.37;;;7.07;;
18793;SDS011;29610;49.022;12.114;2023-06-19T08:32:36;12.90;;;6.67;;
18793;SDS011;29610;49.022;12.114;2023-06-19T08:35:07;13.57;;;7.03;;
18793;SDS011;29610;49.022;12.114;2023-06-19T08:37:36;13.70;;;7.60;;
18793;SDS011;29610;49.022;12.114;2023-06-19T08:40:05;13.83;;;7.00;;
18793;SDS011;29610;49.022;12.114;2023-06-19T08:42:36;12.73;;;7.00;;
18793;SDS011;29610;49.022;12.114;2023-06-19T08:45:07;15.20;;;6.80;;
18793;SDS011;29610;49.022;12.114;2023-06-19T08:47:38;16.60;;;7.90;;
18793;SDS011;29610;49.022;12.114;2023-06-19T08:50:09;15.80;;;7.10;;
18793;SDS011;29610;49.022;12.114;2023-06-19T08:52:38;11.87;;;6.53;;
18793;SDS011;29610;49.022;12.114;2023-06-19T08:55:07;13.57;;;7.90;;
18793;SDS011;29610;49.022;12.114;2023-06-19T08:57:37;16.43;;;7.23;;
18793;SDS011;29610;49.022;12.114;2023-06-19T09:00:08;15.90;;;6.83;;
18793;SDS011;29610;49.022;12.114;2023-06-19T09:02:41;13.83;;;6.87;;
18793;SDS011;29610;49.022;12.114;2023-06-19T09:05:28;13.00;;;7.90;;
18793;SDS011;29610;49.022;12.114;2023-06-19T09:07:57;14.80;;;7.60;;
18793;SDS011;29610;49.022;12.114;2023-06-19T09:10:32;14.63;;;7.27;;
18793;SDS011;29610;49.022;12.114;2023-06-19T09:13:03;13.60;;;7.53;;
18793;SDS011;29610;49.022;12.114;2023-06-19T09:15:33;17.27;;;7.90;;
18793;SDS011;29610;49.022;12.114;2023-06-19T09:18:05;14.70;;;7.60;;
18793;SDS011;29610;49.022;12.114;2023-06-19T09:20:37;16.30;;;7.60;;
18793;SDS011;29610;49.022;12.114;2023-06-19T09:23:10;13.73;;;7.77;;
18793;SDS011;29610;49.022;12.114;2023-06-19T09:25:44;13.27;;;7.33;;
18793;SDS011;29610;49.022;12.114;2023-06-19T09:28:18;15.60;;;8.10;;
18793;SDS011;29610;49.022;12.114;2023-06-19T09:30:55;14.70;;;7.67;;
18793;SDS011;29610;49.022;12.114;2023-06-19T09:33:26;13.83;;;7.37;;
18793;SDS011;29610;49.022;12.114;2023-06-19T09:35:59;17.70;;;7.30;;
18793;SDS011;29610;49.022;12.114;2023-06-19T09:38:30;13.00;;;7.47;;
18793;SDS011;29610;49.022;12.114;2023-06-19T09:41:01;12.10;;;6.50;;
18793;SDS011;29610;49.022;12.114;2023-06-19T09:43:33;12.37;;;5.60;;
18793;SDS011;29610;49.022;12.114;2023-06-19T09:46:05;10.97;;;4.90;;
18793;SDS011;29610;49.022;12.114;2023-06-19T09:48:40;11.50;;;5.80;;
18793;SDS011;29610;49.022;12.114;2023-06-19T09:51:15;16.00;;;5.80;;
18793;SDS011;29610;49.022;12.114;2023-06-19T09:53:51;12.87;;;5.77;;
18793;SDS011;29610;49.022;12.114;2023-06-19T09:56:19;13.33;;;6.20;;
18793;SDS011;29610;49.022;12.114;2023-06-19T09:58:49;17.97;;;5.93;;
18793;SDS011;29610;49.022;12.114;2023-06-19T10:01:27;10.63;;;5.30;;
18793;SDS011;29610;49.022;12.114;2023-06-19T10:04:04;15.10;;;5.93;;
18793;SDS011;29610;49.022;12.114;2023-06-19T10:06:43;11.87;;;5.93;;
18793;SDS011;29610;49.022;12.114;2023-06-19T10:09:14;11.73;;;5.80;;
18793;SDS011;29610;49.022;12.114;2023-06-19T10:11:46;12.00;;;5.93;;
18793;SDS011;29610;49.022;12.114;2023-06-19T10:14:18;13.30;;;6.53;;
18793;SDS011;29610;49.022;12.114;2023-06-19T10:16:48;14.77;;;6.43;;
18793;SDS011;29610;49.022;12.114;2023-06-19T10:19:20;13.23;;;6.27;;
18793;SDS011;29610;49.022;12.114;2023-06-19T10:21:52;11.50;;;5.50;;
18793;SDS011;29610;49.022;12.114;2023-06-19T10:24:22;15.33;;;5.83;;
18793;SDS011;29610;49.022;12.114;2023-06-19T10:26:56;13.87;;;6.60;;
18793;SDS011;29610;49.022;12.114;2023-06-19T10:29:37;11.67;;;6.00;;
18793;SDS011;29610;49.022;12.114;2023-06-19T10:32:08;12.37;;;6.33;;
18793;SDS011;29610;49.022;12.114;2023-06-19T10:34:37;15.77;;;6.00;;
18793;SDS011;29610;49.022;12.114;2023-06-19T10:37:07;17.07;;;5.47;;
18793;SDS011;29610;49.022;12.114;2023-06-19T10:39:35;10.93;;;5.60;;
18793;SDS011;29610;49.022;12.114;2023-06-19T10:42:06;12.10;;;5.97;;
18793;SDS011;29610;49.022;12.114;2023-06-19T10:44:36;17.00;;;6.63;;
18793;SDS011;29610;49.022;12.114;2023-06-19T10:47:05;10.37;;;5.37;;
18793;SDS011;29610;49.022;12.114;2023-06-19T10:49:35;11.10;;;5.70;;
18793;SDS011;29610;49.022;12.114;2023-06-19T10:52:04;11.13;;;5.13;;
18793;SDS011;29610;49.022;12.114;2023-06-19T10:54:35;11.90;;;6.20;;
18793;SDS011;29610;49.022;12.114;2023-06-19T10:57:04;12.40;;;6.30;;
18793;SDS011;29610;49.022;12.114;2023-06-19T10:59:33;11.20;;;5.43;;
18793;SDS011;29610;49.022;12.114;2023-06-19T11:02:02;10.57;;;5.40;;
18793;SDS011;29610;49.022;12.114;2023-06-19T11:04:32;12.93;;;5.40;;
18793;SDS011;29610;49.022;12.114;2023-06-19T11:07:09;9.90;;;4.57;;
18793;SDS011;29610;49.022;12.114;2023-06-19T11:09:39;10.10;;;4.60;;
18793;SDS011;29610;49.022;12.114;2023-06-19T11:12:11;10.87;;;5.23;;
18793;SDS011;29610;49.022;12.114;2023-06-19T11:14:46;9.67;;;4.40;;
18793;SDS011;29610;49.022;12.114;2023-06-19T11:17:15;10.90;;;4.57;;
18793;SDS011;29610;49.022;12.114;2023-06-19T11:19:49;9.77;;;3.83;;
18793;SDS011;29610;49.022;12.114;2023-06-19T11:22:19;9.60;;;4.53;;
18793;SDS011;29610;49.022;12.114;2023-06-19T11:24:48;10.10;;;4.40;;
18793;SDS011;29610;49.022;12.114;2023-06-19T11:27:18;14.70;;;5.00;;
18793;SDS011;29610;49.022;12.114;2023-06-19T11:29:55;12.20;;;4.73;;
18793;SDS011;29610;49.022;12.114;2023-06-19T11:32:30;9.93;;;4.47;;
18793;SDS011;29610;49.022;12.114;2023-06-19T11:35:04;10.83;;;4.27;;
18793;SDS011;29610;49.022;12.114;2023-06-19T11:37:39;10.50;;;4.57;;
18793;SDS011;29610;49.022;12.114;2023-06-19T11:40:09;11.93;;;4.60;;
18793;SDS011;29610;49.022;12.114;2023-06-19T11:42:46;12.53;;;4.57;;
18793;SDS011;29610;49.022;12.114;2023-06-19T11:45:17;9.83;;;4.60;;
18793;SDS011;29610;49.022;12.114;2023-06-19T11:47:46;9.77;;;4.17;;
18793;SDS011;29610;49.022;12.114;2023-06-19T11:50:17;11.03;;;4.90;;
18793;SDS011;29610;49.022;12.114;2023-06-19T11:52:52;9.90;;;4.20;;
18793;SDS011;29610;49.022;12.114;2023-06-19T11:55:21;10.33;;;4.37;;
18793;SDS011;29610;49.022;12.114;2023-06-19T11:57:50;11.43;;;4.20;;
18793;SDS011;29610;49.022;12.114;2023-06-19T12:00:19;9.13;;;4.13;;
18793;SDS011;29610;49.022;12.114;2023-06-19T12:02:49;13.10;;;4.20;;
18793;SDS011;29610;49.022;12.114;2023-06-19T12:05:19;9.17;;;4.00;;
18793;SDS011;29610;49.022;12.114;2023-06-19T12:07:47;10.33;;;3.93;;
18793;SDS011;29610;49.022;12.114;2023-06-19T12:10:18;9.70;;;4.43;;
18793;SDS011;29610;49.022;12.114;2023-06-19T12:12:47;9.63;;;4.10;;
18793;SDS011;29610;49.022;12.114;2023-06-19T12:15:16;9.27;;;4.47;;
18793;SDS011;29610;49.022;12.114;2023-06-19T12:17:45;9.20;;;4.10;;
18793;SDS011;29610;49.022;12.114;2023-06-19T12:20:14;9.90;;;4.87;;
18793;SDS011;29610;49.022;12.114;2023-06-19T12:22:43;11.33;;;4.73;;
18793;SDS011;29610;49.022;12.114;2023-06-19T12:25:12;14.13;;;4.73;;
18793;SDS011;29610;49.022;12.114;2023-06-19T12:27:43;9.67;;;5.00;;
18793;SDS011;29610;49.022;12.114;2023-06-19T12:30:12;9.82;;;4.10;;
18793;SDS011;29610;49.022;12.114;2023-06-19T12:32:40;11.60;;;4.27;;
18793;SDS011;29610;49.022;12.114;2023-06-19T12:35:09;9.27;;;4.10;;
18793;SDS011;29610;49.022;12.114;2023-06-19T12:37:38;9.47;;;4.03;;
18793;SDS011;29610;49.022;12.114;2023-06-19T12:40:07;9.20;;;4.23;;
18793;SDS011;29610;49.022;12.114;2023-06-19T12:42:37;9.80;;;4.70;;
18793;SDS011;29610;49.022;12.114;2023-06-19T12:45:08;10.40;;;4.90;;
18793;SDS011;29610;49.022;12.114;2023-06-19T12:47:38;15.30;;;5.00;;
18793;SDS011;29610;49.022;12.114;2023-06-19T12:50:07;10.60;;;5.00;;
18793;SDS011;29610;49.022;12.114;2023-06-19T12:52:38;9.00;;;4.07;;
18793;SDS011;29610;49.022;12.114;2023-06-19T12:55:07;8.17;;;3.50;;
18793;SDS011;29610;49.022;12.114;2023-06-19T12:57:36;11.20;;;3.53;;
18793;SDS011;29610;49.022;12.114;2023-06-19T13:00:09;8.60;;;3.77;;
18793;SDS011;29610;49.022;12.114;2023-06-19T13:02:40;9.13;;;3.50;;
18793;SDS011;29610;49.022;12.114;2023-06-19T13:05:10;8.67;;;3.53;;
18793;SDS011;29610;49.022;12.114;2023-06-19T13:07:38;13.90;;;4.10;;
18793;SDS011;29610;49.022;12.114;2023-06-19T13:10:07;8.57;;;3.77;;
18793;SDS011;29610;49.022;12.114;2023-06-19T13:12:37;8.53;;;3.50;;
18793;SDS011;29610;49.022;12.114;2023-06-19T13:15:08;14.60;;;4.40;;
18793;SDS011;29610;49.022;12.114;2023-06-19T13:17:37;13.30;;;4.90;;
18793;SDS011;29610;49.022;12.114;2023-06-19T13:20:06;9.50;;;4.10;;
18793;SDS011;29610;49.022;12.114;2023-06-19T13:22:36;10.13;;;3.10;;
18793;SDS011;29610;49.022;12.114;2023-06-19T13:25:05;9.23;;;3.20;;
18793;SDS011;29610;49.022;12.114;2023-06-19T13:27:35;13.73;;;2.87;;
18793;SDS011;29610;49.022;12.114;2023-06-19T13:30:04;7.40;;;2.60;;
18793;SDS011;29610;49.022;12.114;2023-06-19T13:32:36;10.00;;;3.10;;
18793;SDS011;29610;49.022;12.114;2023-06-19T13:35:05;9.03;;;2.90;;
18793;SDS011;29610;49.022;12.114;2023-06-19T13:37:36;7.10;;;2.37;;
18793;SDS011;29610;49.022;12.114;2023-06-19T13:40:07;7.10;;;2.50;;
18793;SDS011;29610;49.022;12.114;2023-06-19T13:42:36;6.90;;;2.47;;
18793;SDS011;29610;49.022;12.114;2023-06-19T13:45:06;6.90;;;2.50;;
18793;SDS011;29610;49.022;12.114;2023-06-19T13:47:37;6.50;;;2.20;;
18793;SDS011;29610;49.022;12.114;2023-06-19T13:50:07;7.57;;;2.57;;
18793;SDS011;29610;49.022;12.114;2023-06-19T13:52:36;6.60;;;2.10;;
18793;SDS011;29610;49.022;12.114;2023-06-19T13:55:05;7.23;;;2.60;;
18793;SDS011;29610;49.022;12.114;2023-06-19T13:57:35;7.20;;;2.50;;
18793;SDS011;29610;49.022;12.114;2023-06-19T14:00:05;8.47;;;3.10;;
18793;SDS011;29610;49.022;12.114;2023-06-19T14:02:46;8.77;;;2.70;;
18793;SDS011;29610;49.022;12.114;2023-06-19T14:05:16;7.60;;;2.67;;
18793;SDS011;29610;49.022;12.114;2023-06-19T14:07:45;8.60;;;3.10;;
18793;SDS011;29610;49.022;12.114;2023-06-19T14:10:14;9.50;;;2.90;;
18793;SDS011;29610;49.022;12.114;2023-06-19T14:12:43;8.37;;;2.80;;
18793;SDS011;29610;49.022;12.114;2023-06-19T14:15:13;8.20;;;3.20;;
18793;SDS011;29610;49.022;12.114;2023-06-19T14:17:42;8.50;;;3.80;;
18793;SDS011;29610;49.022;12.114;2023-06-19T14:20:11;10.20;;;3.43;;
18793;SDS011;29610;49.022;12.114;2023-06-19T14:22:40;10.13;;;4.10;;
18793;SDS011;29610;49.022;12.114;2023-06-19T14:25:08;10.20;;;3.43;;
18793;SDS011;29610;49.022;12.114;2023-06-19T14:27:38;9.30;;;4.07;;
18793;SDS011;29610;49.022;12.114;2023-06-19T14:30:07;9.23;;;4.10;;
18793;SDS011;29610;49.022;12.114;2023-06-19T14:32:37;10.03;;;4.60;;
18793;SDS011;29610;49.022;12.114;2023-06-19T14:35:06;9.37;;;4.20;;
18793;SDS011;29610;49.022;12.114;2023-06-19T14:37:35;11.00;;;4.40;;
18793;SDS011;29610;49.022;12.114;2023-06-19T14:40:05;11.37;;;5.00;;